This is the latest recevied weather packets stored in our database for station/object WW3TRG. If no packets are shown the sender has not sent any weather packets the latest 1 day(s).
| Time | Temp. | Humidity | Pressure | Rain* | Wind** | Luminosity | Snow |
|---|---|---|---|---|---|---|---|
| 1777980882 | 12.22° C | 99% | 1010.3 hPa | 0 mm | 0 m/s | 79 W/m² | - |
| 1777980578 | 11.11° C | 99% | 1010.2 hPa | 0 mm | 0.45 m/s, 186° | 78 W/m² | - |
| 1777980276 | 11.11° C | 99% | 1010.1 hPa | 0 mm | 0 m/s | 65 W/m² | - |
| 1777979972 | 10.56° C | 99% | 1010 hPa | 0 mm | 0 m/s | 48 W/m² | - |
| 1777979666 | 10° C | 99% | 1009.8 hPa | 0 mm | 0 m/s | 42 W/m² | - |
| 1777979363 | 9.44° C | 99% | 1009.7 hPa | 0 mm | 0.89 m/s, 106° | 32 W/m² | - |
| 1777979060 | 9.44° C | 99% | 1010 hPa | 0 mm | 0 m/s | 29 W/m² | - |
| 1777978757 | 9.44° C | 99% | 1009.7 hPa | 0 mm | 0.89 m/s, 121° | 27 W/m² | - |
| 1777978454 | 9.44° C | 99% | 1010 hPa | 0 mm | 0 m/s | 23 W/m² | - |
| 1777978149 | 9.44° C | 99% | 1009.8 hPa | 0 mm | 0 m/s | 22 W/m² | - |
| 1777977847 | 8.89° C | 99% | 1009.9 hPa | 0 mm | 0.45 m/s, 131° | 20 W/m² | - |
| 1777977543 | 8.89° C | 99% | 1009.8 hPa | 0 mm | 0 m/s | 17 W/m² | - |
| 1777977241 | 8.89° C | 99% | 1009.9 hPa | 0 mm | 0 m/s | 15 W/m² | - |
| 1777976938 | 8.89° C | 99% | 1009.7 hPa | 0 mm | 0 m/s | 12 W/m² | - |
| 1777976635 | 8.89° C | 99% | 1009.9 hPa | 0 mm | 0 m/s | 10 W/m² | - |
| 1777976331 | 8.89° C | 99% | 1009.8 hPa | 0 mm | 0 m/s | 7 W/m² | - |
| 1777976026 | 9.44° C | 99% | 1010 hPa | 0 mm | 0 m/s | 4 W/m² | - |
| 1777975722 | 8.89° C | 99% | 1009.8 hPa | 0 mm | 0 m/s | 2 W/m² | - |
| 1777975418 | 8.89° C | 99% | 1009.5 hPa | 0 mm | 0 m/s | 1 W/m² | - |
| 1777975114 | 9.44° C | 99% | 1009.7 hPa | 0 mm | 0 m/s | 0 W/m² | - |
| 1777974812 | 9.44° C | 99% | 1009.4 hPa | 0 mm | 0 m/s | 0 W/m² | - |
| 1777974508 | 10° C | 99% | 1009.4 hPa | 0 mm | 0 m/s | 0 W/m² | - |
| 1777974205 | 10° C | 99% | 1009.4 hPa | 0 mm | 0 m/s | 0 W/m² | - |
| 1777973900 | 10° C | 99% | 1009.3 hPa | 0 mm | 0 m/s | 0 W/m² | - |
| 1777973598 | 10° C | 99% | 1009.1 hPa | 0 mm | 0.45 m/s, 32° | 0 W/m² | - |
* Rain latest hour (hover to see other rain measurements)
** Current wind speed in m/s (hover to see current wind gust speed)